Time;durP1;ratioP1;P1;durP2;ratioP2;P2;SDS_P1;SDS_P2;PMS_P1;PMS_P2;Temp;Humidity;BMP_temperature;BMP_pressure;BME280_temperature;BME280_humidity;BME280_pressure;Samples;Min_cycle;Max_cycle;Signal;HPM_P1;HPM_P2
2023/07/24 00:00:33;;;;;;;0.65;0.30;;;19.20;93.40;;;;;;4785723;29;20058;-81
2023/07/24 00:03:02;;;;;;;0.60;0.30;;;19.20;93.40;;;;;;4797548;29;20989;-80
2023/07/24 00:05:29;;;;;;;1.40;0.35;;;19.20;93.40;;;;;;4767504;29;20054;-81
2023/07/24 00:07:56;;;;;;;1.10;0.40;;;19.20;93.50;;;;;;4802390;29;20471;-81
2023/07/24 00:10:23;;;;;;;2.08;0.60;;;19.20;93.40;;;;;;4799196;29;20068;-81
2023/07/24 00:12:50;;;;;;;0.80;0.40;;;19.20;93.50;;;;;;4795406;29;20494;-80
2023/07/24 00:15:17;;;;;;;1.83;0.70;;;19.10;93.50;;;;;;4799934;29;20069;-81
2023/07/24 00:17:44;;;;;;;1.17;0.40;;;19.10;93.50;;;;;;4808956;29;20054;-80
2023/07/24 00:20:12;;;;;;;1.30;0.60;;;19.20;93.50;;;;;;4786925;29;20134;-80
2023/07/24 00:22:40;;;;;;;1.25;0.52;;;19.10;93.50;;;;;;4801490;29;20696;-80
2023/07/24 00:25:08;;;;;;;1.35;0.50;;;19.10;93.50;;;;;;4807336;29;20059;-80
2023/07/24 00:27:35;;;;;;;1.30;0.30;;;19.10;93.50;;;;;;4810375;29;20046;-80
2023/07/24 00:30:03;;;;;;;0.93;0.38;;;19.20;93.60;;;;;;4812511;29;20055;-81
2023/07/24 00:32:30;;;;;;;0.70;0.30;;;19.10;93.50;;;;;;4788978;29;20047;-81
2023/07/24 00:34:57;;;;;;;0.77;0.30;;;19.10;93.50;;;;;;4790792;29;20988;-81
2023/07/24 00:37:24;;;;;;;0.85;0.22;;;19.10;93.50;;;;;;4816976;29;20050;-81
2023/07/24 00:39:51;;;;;;;0.85;0.30;;;19.10;93.60;;;;;;4807524;29;20050;-80
2023/07/24 00:42:18;;;;;;;0.65;0.30;;;19.10;93.60;;;;;;4772421;29;20050;-80
2023/07/24 00:44:47;;;;;;;0.88;0.40;;;19.00;93.60;;;;;;4802333;29;20577;-80
2023/07/24 00:47:17;;;;;;;1.25;0.50;;;19.00;93.70;;;;;;4786380;29;20070;-80
2023/07/24 00:49:46;;;;;;;1.25;0.60;;;19.00;93.70;;;;;;4812342;29;20457;-81
2023/07/24 00:52:14;;;;;;;1.67;0.50;;;19.00;93.70;;;;;;4771407;29;20395;-80
2023/07/24 00:54:41;;;;;;;0.68;0.30;;;18.90;93.70;;;;;;4789912;29;20503;-80
2023/07/24 00:57:09;;;;;;;0.90;0.40;;;18.90;93.70;;;;;;4794773;29;20054;-80
2023/07/24 00:59:36;;;;;;;0.80;0.50;;;18.80;93.80;;;;;;4772381;29;20062;-80
2023/07/24 01:02:03;;;;;;;0.55;0.30;;;18.80;93.80;;;;;;4810003;29;20069;-81
2023/07/24 01:04:30;;;;;;;0.88;0.30;;;18.80;93.80;;;;;;4791646;29;20047;-81
2023/07/24 01:06:58;;;;;;;1.00;0.30;;;18.80;93.80;;;;;;4792165;29;20134;-80
2023/07/24 01:09:25;;;;;;;1.13;0.30;;;18.80;93.80;;;;;;4803535;29;20137;-81
2023/07/24 01:12:12;;;;;;;1.08;0.50;;;18.80;93.80;;;;;;4796901;29;20518;-81
2023/07/24 01:14:52;;;;;;;1.27;0.50;;;18.80;93.70;;;;;;4816341;29;20382;-80
2023/07/24 01:17:24;;;;;;;0.95;0.30;;;18.80;93.80;;;;;;4797819;29;20047;-80
2023/07/24 01:19:57;;;;;;;1.10;0.40;;;18.80;93.80;;;;;;4809124;29;20059;-81
2023/07/24 01:22:27;;;;;;;0.93;0.40;;;18.80;93.80;;;;;;4820087;29;20069;-80
2023/07/24 01:24:54;;;;;;;1.95;0.50;;;18.70;93.90;;;;;;4808546;29;21088;-81
2023/07/24 01:27:25;;;;;;;1.20;0.52;;;18.70;93.90;;;;;;4800916;29;20100;-80
2023/07/24 01:29:52;;;;;;;1.08;0.50;;;18.80;93.90;;;;;;4769671;29;20123;-81
2023/07/24 01:32:20;;;;;;;1.23;0.40;;;18.70;93.90;;;;;;4786193;29;20075;-80
2023/07/24 01:34:48;;;;;;;1.25;0.45;;;18.80;93.90;;;;;;4799911;29;20068;-81
2023/07/24 01:37:34;;;;;;;2.33;1.10;;;18.80;93.90;;;;;;4763151;29;20062;-81
2023/07/24 01:40:03;;;;;;;1.45;0.70;;;18.80;93.90;;;;;;4809829;29;20411;-81
2023/07/24 01:42:31;;;;;;;2.95;0.85;;;18.80;93.90;;;;;;4795056;29;20101;-81
2023/07/24 01:44:58;;;;;;;1.38;0.50;;;18.80;93.90;;;;;;4803593;29;20047;-81
2023/07/24 01:47:25;;;;;;;1.10;0.50;;;18.80;93.90;;;;;;4766866;29;20149;-81
2023/07/24 01:49:52;;;;;;;1.15;0.50;;;18.80;94.00;;;;;;4800976;29;20111;-81
2023/07/24 01:52:20;;;;;;;1.23;0.60;;;18.80;94.00;;;;;;4808652;29;20046;-81
2023/07/24 01:54:48;;;;;;;1.88;0.70;;;18.80;94.00;;;;;;4804522;29;20051;-82
2023/07/24 01:57:16;;;;;;;2.13;0.70;;;18.80;94.00;;;;;;4800043;29;20062;-80
2023/07/24 01:59:44;;;;;;;1.67;0.68;;;18.80;94.00;;;;;;4816433;29;20099;-80
2023/07/24 02:02:12;;;;;;;1.50;0.80;;;18.80;93.90;;;;;;4806155;29;20243;-80
2023/07/24 02:04:39;;;;;;;1.17;0.65;;;18.80;93.90;;;;;;4811914;29;20165;-80
2023/07/24 02:07:06;;;;;;;2.28;0.60;;;18.90;93.90;;;;;;4799534;29;20072;-81
2023/07/24 02:09:33;;;;;;;1.83;0.70;;;18.80;93.90;;;;;;4795281;29;20051;-81
2023/07/24 02:12:02;;;;;;;1.55;0.77;;;18.80;94.00;;;;;;4809396;29;20142;-81
2023/07/24 02:14:51;;;;;;;1.35;0.52;;;18.80;94.00;;;;;;4792670;29;20065;-80
2023/07/24 02:17:19;;;;;;;1.52;0.60;;;18.80;94.00;;;;;;4808592;29;20055;-80
2023/07/24 02:19:46;;;;;;;2.05;0.70;;;18.80;94.10;;;;;;4793269;29;20050;-80
2023/07/24 02:22:13;;;;;;;1.15;0.50;;;18.70;94.00;;;;;;4790335;29;20050;-81
2023/07/24 02:24:40;;;;;;;1.75;0.80;;;18.80;94.00;;;;;;4810756;29;20091;-80
2023/07/24 02:27:07;;;;;;;2.65;0.93;;;18.80;94.00;;;;;;4780415;29;20062;-80
2023/07/24 02:29:35;;;;;;;1.60;0.70;;;18.80;94.00;;;;;;4799917;29;20046;-80
2023/07/24 02:32:02;;;;;;;2.53;1.10;;;18.80;94.00;;;;;;4799691;29;20073;-81
2023/07/24 02:34:29;;;;;;;1.85;0.82;;;18.80;94.00;;;;;;4776221;29;20792;-81
2023/07/24 02:36:57;;;;;;;2.22;0.90;;;18.80;94.00;;;;;;4810878;29;20410;-82
2023/07/24 02:39:24;;;;;;;1.65;0.70;;;18.90;94.00;;;;;;4808257;29;20061;-81
2023/07/24 02:41:51;;;;;;;1.92;0.68;;;18.90;94.00;;;;;;4799438;29;20146;-81
2023/07/24 02:44:18;;;;;;;1.95;0.60;;;18.90;94.00;;;;;;4790396;29;20047;-81
2023/07/24 02:47:23;;;;;;;2.05;0.90;;;18.80;94.00;;;;;;4785066;29;20083;-81
2023/07/24 02:49:50;;;;;;;1.73;0.70;;;18.80;94.00;;;;;;4788672;29;20423;-81
2023/07/24 02:52:17;;;;;;;1.27;0.70;;;18.80;94.10;;;;;;4795276;29;20488;-81
2023/07/24 02:54:44;;;;;;;1.48;0.70;;;18.80;94.10;;;;;;4802436;29;20138;-81
2023/07/24 02:57:12;;;;;;;2.03;0.90;;;18.80;94.10;;;;;;4779691;29;20410;-81
2023/07/24 02:59:39;;;;;;;2.05;0.70;;;18.80;94.10;;;;;;4789205;29;20047;-81
2023/07/24 03:02:06;;;;;;;1.55;0.80;;;18.80;94.10;;;;;;4794577;29;20070;-81
2023/07/24 03:04:33;;;;;;;1.45;0.80;;;18.80;94.10;;;;;;4790919;29;20055;-81
2023/07/24 03:07:00;;;;;;;2.10;0.73;;;18.80;94.10;;;;;;4797222;29;20442;-81
2023/07/24 03:09:27;;;;;;;1.55;0.60;;;18.80;94.10;;;;;;4781728;29;20050;-82
2023/07/24 03:11:54;;;;;;;2.13;1.20;;;18.80;94.10;;;;;;4790235;29;20775;-81
2023/07/24 03:14:22;;;;;;;1.70;0.70;;;18.80;94.20;;;;;;4781959;29;20509;-82
2023/07/24 03:16:49;;;;;;;1.60;0.75;;;18.70;94.20;;;;;;4781155;29;20123;-82
2023/07/24 03:19:17;;;;;;;1.75;0.77;;;18.70;94.30;;;;;;4797701;29;20450;-80
2023/07/24 03:21:44;;;;;;;2.03;1.08;;;18.60;94.30;;;;;;4795177;29;20143;-81
2023/07/24 03:24:11;;;;;;;1.33;0.68;;;18.60;94.40;;;;;;4811905;29;20050;-81
2023/07/24 03:26:38;;;;;;;1.83;0.95;;;18.60;94.70;;;;;;4810909;29;20050;-81
2023/07/24 03:29:06;;;;;;;1.98;0.75;;;18.60;94.50;;;;;;4805256;29;20038;-82
2023/07/24 03:31:33;;;;;;;1.20;0.60;;;18.60;94.50;;;;;;4800645;29;20046;-82
2023/07/24 03:34:00;;;;;;;2.30;0.73;;;18.60;94.50;;;;;;4800556;29;20045;-82
2023/07/24 03:36:27;;;;;;;1.67;0.80;;;18.60;94.70;;;;;;4802957;29;20921;-82
2023/07/24 03:38:54;;;;;;;1.63;0.95;;;18.60;94.60;;;;;;4797054;29;20054;-82
2023/07/24 03:41:21;;;;;;;2.92;1.27;;;18.50;94.60;;;;;;4804193;29;20058;-83
2023/07/24 03:43:48;;;;;;;2.47;1.02;;;18.50;94.60;;;;;;4816339;29;20049;-82
2023/07/24 03:46:15;;;;;;;1.95;0.88;;;18.50;94.60;;;;;;4782707;29;20966;-81
2023/07/24 03:49:01;;;;;;;3.45;1.52;;;18.50;94.70;;;;;;4797786;29;20049;-81
2023/07/24 03:51:28;;;;;;;3.45;1.00;;;18.50;94.70;;;;;;4823079;29;20058;-82
2023/07/24 03:53:56;;;;;;;2.90;1.55;;;18.40;94.70;;;;;;4797204;29;20054;-82
2023/07/24 03:56:23;;;;;;;2.47;1.00;;;18.40;94.80;;;;;;4792436;29;20069;-83
2023/07/24 03:58:52;;;;;;;2.70;1.23;;;18.40;94.80;;;;;;4801759;29;20793;-84
2023/07/24 04:01:19;;;;;;;2.35;1.08;;;18.30;94.80;;;;;;4788151;29;20456;-82
2023/07/24 04:04:05;;;;;;;3.35;1.30;;;18.30;94.90;;;;;;4798375;29;20054;-82
2023/07/24 04:06:32;;;;;;;2.28;1.08;;;18.30;94.90;;;;;;4793090;29;20047;-82
2023/07/24 04:08:59;;;;;;;3.28;1.50;;;18.30;94.90;;;;;;4786641;29;20076;-82
2023/07/24 04:11:26;;;;;;;2.75;1.20;;;18.20;95.00;;;;;;4820160;29;20389;-81
2023/07/24 04:13:53;;;;;;;2.45;1.10;;;18.20;95.00;;;;;;4791010;29;20495;-82
2023/07/24 04:16:20;;;;;;;2.85;1.42;;;18.20;95.00;;;;;;4794032;29;20061;-82
2023/07/24 04:18:47;;;;;;;4.25;2.00;;;18.20;95.10;;;;;;4804907;29;20084;-82
2023/07/24 04:21:14;;;;;;;2.58;1.15;;;18.10;95.10;;;;;;4766821;29;20144;-81
2023/07/24 04:23:41;;;;;;;2.65;1.40;;;18.10;95.10;;;;;;4806934;29;20046;-82
2023/07/24 04:26:08;;;;;;;2.20;1.25;;;18.10;95.20;;;;;;4803165;29;20057;-82
2023/07/24 04:28:35;;;;;;;2.13;1.00;;;18.10;95.20;;;;;;4810763;29;20091;-82
2023/07/24 04:31:02;;;;;;;4.43;1.55;;;18.10;95.30;;;;;;4804155;29;20628;-82
2023/07/24 04:33:29;;;;;;;2.97;1.10;;;18.00;95.30;;;;;;4786040;29;20061;-82
2023/07/24 04:35:58;;;;;;;2.58;1.42;;;18.00;95.30;;;;;;4792589;29;20119;-82
2023/07/24 04:38:26;;;;;;;1.90;1.00;;;18.00;95.40;;;;;;4798405;29;20061;-82
2023/07/24 04:40:53;;;;;;;2.35;1.00;;;18.00;95.40;;;;;;4753138;29;20053;-83
2023/07/24 04:43:20;;;;;;;2.47;1.27;;;18.00;95.40;;;;;;4796598;29;20053;-82
2023/07/24 04:45:47;;;;;;;3.15;1.48;;;18.00;95.40;;;;;;4809186;29;20046;-82
2023/07/24 04:48:14;;;;;;;2.28;0.90;;;18.00;95.40;;;;;;4810124;29;20050;-82
2023/07/24 04:50:41;;;;;;;2.05;1.15;;;18.00;95.40;;;;;;4771000;29;20051;-82
2023/07/24 04:53:08;;;;;;;2.08;0.90;;;18.00;95.40;;;;;;4772577;29;20047;-82
2023/07/24 04:55:35;;;;;;;2.28;0.90;;;18.00;95.40;;;;;;4786389;29;20057;-82
2023/07/24 04:58:02;;;;;;;2.15;1.08;;;18.00;95.40;;;;;;4793698;29;20050;-82
2023/07/24 05:00:29;;;;;;;3.05;1.42;;;18.00;95.60;;;;;;4810838;29;20518;-82
2023/07/24 05:02:56;;;;;;;2.90;1.48;;;18.00;95.40;;;;;;4800234;29;20130;-82
2023/07/24 05:05:23;;;;;;;3.15;1.80;;;18.00;95.50;;;;;;4794351;29;20491;-82
2023/07/24 05:07:50;;;;;;;2.15;1.30;;;17.90;95.50;;;;;;4805188;29;20137;-82
2023/07/24 05:10:17;;;;;;;3.50;1.67;;;17.90;95.50;;;;;;4788548;29;20047;-82
2023/07/24 05:12:44;;;;;;;3.45;1.52;;;17.90;95.50;;;;;;4805522;29;20381;-82
2023/07/24 05:15:11;;;;;;;3.00;1.60;;;17.90;95.60;;;;;;4772766;29;20050;-81
2023/07/24 05:17:38;;;;;;;2.95;1.20;;;17.80;95.60;;;;;;4811794;29;20483;-80
2023/07/24 05:20:06;;;;;;;3.65;2.00;;;17.80;95.60;;;;;;4774036;29;20043;-81
2023/07/24 05:22:33;;;;;;;2.83;1.80;;;17.90;95.60;;;;;;4807859;29;20035;-79
2023/07/24 05:25:00;;;;;;;4.47;2.70;;;17.90;95.60;;;;;;4779605;29;20073;-81
2023/07/24 05:27:27;;;;;;;4.57;2.72;;;17.80;95.60;;;;;;4803744;29;20066;-81
2023/07/24 05:29:54;;;;;;;4.30;2.58;;;17.80;95.70;;;;;;4811304;29;20051;-80
2023/07/24 05:32:21;;;;;;;4.75;2.95;;;17.80;95.70;;;;;;4779955;29;20113;-81
2023/07/24 05:34:48;;;;;;;5.05;3.22;;;17.80;95.70;;;;;;4805132;29;20128;-81
2023/07/24 05:37:15;;;;;;;5.63;2.88;;;17.70;95.70;;;;;;4792406;29;20051;-81
2023/07/24 05:39:42;;;;;;;4.85;3.00;;;17.80;95.80;;;;;;4824431;29;20046;-81
2023/07/24 05:42:10;;;;;;;5.85;3.70;;;17.80;95.80;;;;;;4798003;29;20137;-81
2023/07/24 05:44:37;;;;;;;5.80;4.03;;;17.80;95.80;;;;;;4814902;29;20046;-81
2023/07/24 05:47:04;;;;;;;5.88;3.70;;;17.80;95.80;;;;;;4794855;29;20428;-81
2023/07/24 05:49:31;;;;;;;5.85;3.70;;;17.80;95.80;;;;;;4814324;29;20102;-80
2023/07/24 05:51:58;;;;;;;4.90;3.15;;;17.90;95.80;;;;;;4801679;29;20141;-81
2023/07/24 05:54:25;;;;;;;4.63;2.88;;;17.90;95.70;;;;;;4784191;29;20389;-81
2023/07/24 05:56:52;;;;;;;4.40;2.63;;;18.00;95.60;;;;;;4810217;29;20166;-81
2023/07/24 05:59:19;;;;;;;4.80;3.13;;;18.00;95.60;;;;;;4799432;29;20062;-80
2023/07/24 06:01:46;;;;;;;4.85;3.00;;;18.10;95.60;;;;;;4803653;29;20145;-81
2023/07/24 06:04:13;;;;;;;5.13;3.08;;;18.10;95.60;;;;;;4801730;29;20487;-80
2023/07/24 06:06:40;;;;;;;4.70;3.25;;;18.10;95.60;;;;;;4802874;29;20879;-80
2023/07/24 06:09:08;;;;;;;5.85;3.75;;;18.10;95.50;;;;;;4796438;29;20042;-81
2023/07/24 06:11:36;;;;;;;6.47;3.95;;;18.20;95.60;;;;;;4805819;29;20045;-81
2023/07/24 06:14:03;;;;;;;5.25;3.28;;;18.20;95.60;;;;;;4802036;29;20054;-82
2023/07/24 06:16:30;;;;;;;5.70;3.38;;;18.20;95.60;;;;;;4812415;29;20162;-82
2023/07/24 06:18:57;;;;;;;5.55;3.40;;;18.20;95.60;;;;;;4831844;29;20145;-81
2023/07/24 06:21:24;;;;;;;4.32;2.30;;;18.20;95.50;;;;;;4801002;29;20062;-81
2023/07/24 06:23:51;;;;;;;6.00;3.28;;;18.30;95.50;;;;;;4816973;29;20103;-82
2023/07/24 06:26:18;;;;;;;6.05;3.90;;;18.30;95.40;;;;;;4756426;29;20058;-82
2023/07/24 06:28:45;;;;;;;5.47;3.53;;;18.30;95.40;;;;;;4785820;29;20499;-81
2023/07/24 06:31:12;;;;;;;7.22;3.97;;;18.30;95.40;;;;;;4811611;29;20046;-83
2023/07/24 06:33:39;;;;;;;6.38;3.90;;;18.30;95.50;;;;;;4800946;29;20046;-82
2023/07/24 06:36:10;;;;;;;7.85;4.55;;;18.30;95.50;;;;;;4811461;29;20058;-84
2023/07/24 06:38:37;;;;;;;6.63;4.18;;;18.20;95.50;;;;;;4814368;29;20081;-84
2023/07/24 06:41:04;;;;;;;6.05;3.88;;;18.20;95.60;;;;;;4796940;29;20484;-83
2023/07/24 06:43:31;;;;;;;5.30;3.35;;;18.20;95.60;;;;;;4811891;29;20054;-81
2023/07/24 06:45:58;;;;;;;5.05;3.15;;;18.30;95.60;;;;;;4795455;29;20050;-80
2023/07/24 06:48:25;;;;;;;7.95;4.95;;;18.50;95.40;;;;;;4808260;29;20050;-81
2023/07/24 06:50:52;;;;;;;7.30;4.03;;;18.60;95.30;;;;;;4812806;29;20061;-80
2023/07/24 06:53:19;;;;;;;5.93;3.50;;;18.60;95.20;;;;;;4775073;29;20543;-81
2023/07/24 06:55:46;;;;;;;4.35;3.05;;;18.70;95.20;;;;;;4802548;29;20072;-80
2023/07/24 06:58:13;;;;;;;5.05;3.03;;;18.70;95.40;;;;;;4792968;29;20046;-80
2023/07/24 07:00:40;;;;;;;5.43;3.30;;;18.70;95.10;;;;;;4798890;29;20053;-81
2023/07/24 07:03:07;;;;;;;5.38;3.10;;;18.60;95.10;;;;;;4802912;29;20054;-81
2023/07/24 07:05:34;;;;;;;5.68;3.63;;;18.70;95.10;;;;;;4799445;29;20054;-81
2023/07/24 07:08:02;;;;;;;6.53;4.20;;;18.70;95.00;;;;;;4801835;29;20508;-81
2023/07/24 07:10:30;;;;;;;5.20;3.78;;;18.80;94.90;;;;;;4788146;29;20049;-81
2023/07/24 07:12:57;;;;;;;7.03;4.68;;;18.70;94.90;;;;;;4810172;29;20483;-81
2023/07/24 07:15:24;;;;;;;5.70;3.90;;;18.70;94.90;;;;;;4790542;29;20137;-80
2023/07/24 07:17:51;;;;;;;8.68;5.95;;;18.90;94.80;;;;;;4796766;29;20119;-81
2023/07/24 07:20:19;;;;;;;7.55;5.72;;;19.10;94.40;;;;;;4804500;29;20065;-81
2023/07/24 07:22:46;;;;;;;7.45;5.63;;;19.30;94.30;;;;;;4801157;29;20062;-81
2023/07/24 07:25:13;;;;;;;9.43;6.22;;;19.40;94.30;;;;;;4798720;29;20525;-82
2023/07/24 07:27:42;;;;;;;11.65;7.07;;;19.50;93.80;;;;;;4682459;29;20507;-81
2023/07/24 07:30:09;;;;;;;9.13;6.13;;;19.60;93.60;;;;;;4790835;29;20054;-81
2023/07/24 07:32:36;;;;;;;8.32;5.50;;;19.60;93.50;;;;;;4804510;29;20050;-81
2023/07/24 07:35:04;;;;;;;8.73;4.97;;;19.70;93.50;;;;;;4805366;29;20073;-82
2023/07/24 07:37:31;;;;;;;7.13;5.70;;;19.90;93.30;;;;;;4800557;29;20073;-84
2023/07/24 07:39:58;;;;;;;11.80;6.30;;;20.00;93.10;;;;;;4802638;29;20541;-88
2023/07/24 07:42:25;;;;;;;10.95;6.20;;;20.00;92.70;;;;;;4813867;29;20438;-80
2023/07/24 07:44:52;;;;;;;10.32;6.38;;;20.00;92.70;;;;;;4794123;29;20058;-81
2023/07/24 07:47:20;;;;;;;8.05;5.50;;;20.00;92.50;;;;;;4796296;29;20050;-80
2023/07/24 07:49:47;;;;;;;8.55;6.20;;;19.90;92.60;;;;;;4796696;29;20047;-78
2023/07/24 07:52:17;;;;;;;9.13;6.72;;;19.90;92.60;;;;;;4813145;29;20046;-83
2023/07/24 07:54:48;;;;;;;6.60;5.43;;;19.90;92.60;;;;;;4785351;29;20100;-79
2023/07/24 07:57:15;;;;;;;8.25;5.57;;;20.00;92.60;;;;;;4810928;29;20070;-87
2023/07/24 07:59:43;;;;;;;11.32;6.25;;;20.10;92.60;;;;;;4803396;29;20062;-82
2023/07/24 08:02:11;;;;;;;7.22;5.25;;;20.20;92.30;;;;;;4785762;29;20130;-85
2023/07/24 08:04:38;;;;;;;8.73;6.00;;;20.20;92.10;;;;;;4798083;29;20055;-82
2023/07/24 08:07:05;;;;;;;8.02;6.00;;;20.20;91.90;;;;;;4778655;29;20093;-84
2023/07/24 08:09:33;;;;;;;8.73;5.53;;;20.20;92.00;;;;;;4807409;29;20042;-87
2023/07/24 08:12:00;;;;;;;8.75;5.70;;;19.90;92.20;;;;;;4821349;29;20129;-82
2023/07/24 08:14:27;;;;;;;7.05;5.05;;;19.80;92.50;;;;;;4802822;29;20053;-84
2023/07/24 08:16:54;;;;;;;7.05;4.63;;;19.50;92.80;;;;;;4787660;29;20094;-85
2023/07/24 08:19:21;;;;;;;6.80;4.38;;;19.40;93.10;;;;;;4802905;29;20583;-84
2023/07/24 08:21:48;;;;;;;8.63;5.90;;;19.30;93.60;;;;;;4811475;29;20046;-87
2023/07/24 08:24:15;;;;;;;8.15;5.60;;;19.00;93.50;;;;;;4798642;29;20066;-90
2023/07/24 08:26:42;;;;;;;7.55;5.88;;;18.90;93.70;;;;;;4801896;29;20054;-88
2023/07/24 08:29:10;;;;;;;7.55;5.22;;;18.90;93.90;;;;;;4803905;29;20057;-88
2023/07/24 08:32:15;;;;;;;6.28;4.72;;;19.00;93.90;;;;;;4794788;29;20050;-88
2023/07/24 08:34:42;;;;;;;8.88;7.03;;;19.10;93.70;;;;;;4817509;29;20060;-90
2023/07/24 08:37:28;;;;;;;11.52;8.02;;;19.00;93.70;;;;;;4798600;29;20051;-89
2023/07/24 08:39:55;;;;;;;12.18;8.05;;;19.20;93.60;;;;;;4810862;29;20495;-88
2023/07/24 08:42:23;;;;;;;10.40;7.45;;;19.40;93.30;;;;;;4795465;29;20419;-82
2023/07/24 08:44:52;;;;;;;10.23;7.20;;;19.60;93.10;;;;;;4804433;29;20069;-89
2023/07/24 08:47:20;;;;;;;8.70;5.65;;;19.80;92.90;;;;;;4799804;29;20407;-82
2023/07/24 08:49:48;;;;;;;8.40;5.07;;;20.10;92.60;;;;;;4831968;29;20061;-89
2023/07/24 08:52:15;;;;;;;9.55;6.88;;;20.30;92.40;;;;;;4816445;29;20466;-89
2023/07/24 08:55:05;;;;;;;8.60;6.68;;;20.30;92.10;;;;;;4806599;29;20499;-82
2023/07/24 08:57:32;;;;;;;8.60;6.15;;;20.40;91.60;;;;;;4800256;29;20064;-88
2023/07/24 09:00:04;;;;;;;8.43;6.57;;;20.50;91.50;;;;;;4807190;29;20492;-88
2023/07/24 09:02:35;;;;;;;7.40;6.40;;;20.60;91.20;;;;;;4810798;29;20119;-82
2023/07/24 09:05:03;;;;;;;6.70;5.57;;;20.80;90.90;;;;;;4791194;29;20065;-82
2023/07/24 09:07:31;;;;;;;7.90;6.32;;;21.10;90.70;;;;;;4798295;29;20073;-83
2023/07/24 09:09:59;;;;;;;6.80;5.15;;;21.30;89.80;;;;;;4804788;29;20064;-85
2023/07/24 09:12:26;;;;;;;7.72;4.80;;;21.30;90.00;;;;;;4812404;29;20045;-86
2023/07/24 09:15:11;;;;;;;9.68;7.25;;;21.30;90.00;;;;;;4683958;29;20236;-86
2023/07/24 09:17:48;;;;;;;10.23;6.97;;;21.30;88.70;;;;;;4792752;29;20050;-87
2023/07/24 09:20:15;;;;;;;7.88;6.22;;;21.20;88.40;;;;;;4813506;29;20469;-82
2023/07/24 09:22:52;;;;;;;7.97;6.65;;;21.20;88.50;;;;;;4795128;29;20067;-81
2023/07/24 09:25:42;;;;;;;8.45;6.18;;;21.30;88.30;;;;;;4789469;29;20071;-84
2023/07/24 09:28:15;;;;;;;6.88;6.10;;;21.30;87.70;;;;;;4809347;29;20054;-81
2023/07/24 09:30:52;;;;;;;7.00;5.72;;;21.30;87.10;;;;;;4815662;29;20059;-87
2023/07/24 09:33:19;;;;;;;7.97;5.65;;;21.20;87.10;;;;;;4816067;29;20450;-81
2023/07/24 09:35:58;;;;;;;9.40;6.78;;;21.10;87.20;;;;;;4799414;29;20106;-79
2023/07/24 09:38:25;;;;;;;7.75;5.78;;;20.90;86.00;;;;;;4804453;29;20488;-82
2023/07/24 09:40:55;;;;;;;8.68;6.22;;;20.80;86.60;;;;;;4792552;29;20396;-79
2023/07/24 09:43:30;;;;;;;7.03;5.57;;;20.80;86.40;;;;;;4818992;29;20066;-83
2023/07/24 09:46:08;;;;;;;6.00;4.82;;;21.00;86.20;;;;;;4804399;29;20525;-82
2023/07/24 09:48:37;;;;;;;7.93;5.95;;;21.40;85.50;;;;;;4800223;29;20042;-81
2023/07/24 09:51:13;;;;;;;7.82;5.10;;;21.70;83.90;;;;;;4790053;29;20039;-82
2023/07/24 09:54:09;;;;;;;6.28;5.30;;;21.80;83.00;;;;;;4807416;29;20528;-82
2023/07/24 09:56:41;;;;;;;4.97;4.18;;;21.80;83.20;;;;;;4808378;29;20555;-81
2023/07/24 09:59:21;;;;;;;4.65;3.88;;;21.60;83.00;;;;;;4814854;29;20114;-79
2023/07/24 10:01:49;;;;;;;6.18;3.83;;;21.50;83.30;;;;;;4833017;29;20359;-81
2023/07/24 10:04:17;;;;;;;5.20;4.00;;;21.60;83.70;;;;;;4815983;29;20087;-82
2023/07/24 10:06:47;;;;;;;8.70;4.47;;;21.60;83.10;;;;;;4800118;29;20141;-82
2023/07/24 10:09:15;;;;;;;4.60;3.33;;;21.60;82.80;;;;;;4800601;29;20054;-83
2023/07/24 10:11:42;;;;;;;5.60;3.20;;;21.70;83.20;;;;;;4815090;29;20042;-83
2023/07/24 10:14:10;;;;;;;4.93;3.50;;;21.70;82.80;;;;;;4804492;29;20414;-81
2023/07/24 10:16:37;;;;;;;5.47;3.03;;;21.60;82.90;;;;;;4802495;29;20141;-78
2023/07/24 10:19:14;;;;;;;7.35;4.20;;;21.50;83.70;;;;;;4797089;29;20049;-81
2023/07/24 10:21:47;;;;;;;5.70;4.43;;;21.20;83.90;;;;;;4805659;29;20042;-83
2023/07/24 10:24:15;;;;;;;6.20;4.70;;;21.00;85.00;;;;;;4810829;29;20153;-83
2023/07/24 10:26:57;;;;;;;5.60;3.50;;;20.80;85.60;;;;;;4796152;29;20102;-82
2023/07/24 10:29:27;;;;;;;4.68;3.65;;;20.90;85.70;;;;;;4788752;29;20057;-83
2023/07/24 10:31:55;;;;;;;6.70;4.25;;;21.10;85.30;;;;;;4806330;29;20043;-88
2023/07/24 10:34:23;;;;;;;4.57;3.78;;;21.10;84.40;;;;;;4800554;29;20078;-85
2023/07/24 10:36:50;;;;;;;5.07;3.63;;;21.10;84.50;;;;;;4799300;29;20411;-84
2023/07/24 10:39:21;;;;;;;6.60;3.90;;;21.10;84.20;;;;;;4800962;29;20062;-85
2023/07/24 10:41:48;;;;;;;6.87;3.47;;;21.30;84.00;;;;;;4796959;29;20576;-85
2023/07/24 10:44:15;;;;;;;5.03;3.83;;;21.30;83.90;;;;;;4790245;29;20062;-86
2023/07/24 10:46:42;;;;;;;5.63;4.00;;;21.40;83.70;;;;;;4810760;29;20056;-84
2023/07/24 10:49:10;;;;;;;5.35;3.42;;;21.30;83.50;;;;;;4801548;29;20057;-82
2023/07/24 10:51:37;;;;;;;4.85;3.35;;;21.30;83.90;;;;;;4800139;29;20058;-82
2023/07/24 10:54:05;;;;;;;6.28;4.88;;;21.30;84.10;;;;;;4796747;29;20047;-83
2023/07/24 10:56:32;;;;;;;4.53;3.33;;;21.30;83.70;;;;;;4832868;29;20141;-80
2023/07/24 10:59:04;;;;;;;4.82;3.28;;;21.30;84.00;;;;;;4804510;29;20050;-83
2023/07/24 11:01:32;;;;;;;5.63;4.05;;;21.30;84.30;;;;;;4815044;29;20057;-82
2023/07/24 11:04:00;;;;;;;3.90;2.70;;;21.20;84.00;;;;;;4818038;29;20046;-84
2023/07/24 11:06:28;;;;;;;5.03;3.88;;;21.20;84.30;;;;;;4793091;29;20098;-82
2023/07/24 11:08:58;;;;;;;7.70;3.53;;;21.20;84.00;;;;;;4829040;29;20038;-81
2023/07/24 11:11:33;;;;;;;5.35;3.75;;;21.20;84.20;;;;;;4820374;29;20392;-84
2023/07/24 11:14:04;;;;;;;6.75;4.28;;;21.30;84.10;;;;;;4786583;29;20461;-84
2023/07/24 11:16:32;;;;;;;4.60;3.40;;;21.30;83.50;;;;;;4817534;29;20046;-85
2023/07/24 11:19:00;;;;;;;4.50;3.35;;;21.30;83.40;;;;;;4805244;29;20066;-80
2023/07/24 11:21:28;;;;;;;4.93;2.97;;;21.50;83.50;;;;;;4827782;29;20125;-77
2023/07/24 11:23:57;;;;;;;3.33;2.60;;;21.70;83.30;;;;;;4809283;29;20053;-78
2023/07/24 11:26:26;;;;;;;5.65;3.45;;;21.90;82.90;;;;;;4824018;29;20406;-76
2023/07/24 11:28:54;;;;;;;4.13;2.80;;;22.00;82.00;;;;;;4798940;29;20141;-76
2023/07/24 11:31:21;;;;;;;6.03;4.32;;;22.20;82.20;;;;;;4804200;29;20067;-75
2023/07/24 11:33:52;;;;;;;7.78;4.40;;;22.20;80.70;;;;;;4796238;29;20511;-76
2023/07/24 11:36:20;;;;;;;6.07;4.15;;;22.10;79.90;;;;;;4813767;29;20050;-76
2023/07/24 11:38:47;;;;;;;6.00;3.55;;;21.90;80.00;;;;;;4808830;29;20046;-78
2023/07/24 11:41:16;;;;;;;4.47;3.20;;;21.80;80.80;;;;;;4814381;29;20042;-76
2023/07/24 11:43:48;;;;;;;4.53;3.22;;;21.70;81.30;;;;;;4814563;29;20521;-77
2023/07/24 11:46:26;;;;;;;5.10;3.20;;;21.60;81.80;;;;;;4803866;29;20054;-82
2023/07/24 11:48:56;;;;;;;5.85;4.13;;;21.50;82.10;;;;;;4809199;29;20136;-81
2023/07/24 11:51:27;;;;;;;5.72;2.83;;;21.40;81.90;;;;;;4816629;29;20051;-82
2023/07/24 11:54:11;;;;;;;4.63;3.05;;;21.50;82.00;;;;;;4814233;29;20050;-84
2023/07/24 11:56:39;;;;;;;6.55;4.15;;;21.70;81.30;;;;;;4810155;29;20046;-83
2023/07/24 11:59:13;;;;;;;5.53;3.47;;;21.90;80.60;;;;;;4818058;29;20167;-82
2023/07/24 12:01:41;;;;;;;5.78;3.03;;;22.00;80.50;;;;;;4812950;29;20255;-76
2023/07/24 12:04:08;;;;;;;4.80;3.17;;;22.10;80.30;;;;;;4810120;29;20480;-77
2023/07/24 12:06:37;;;;;;;6.05;3.85;;;22.30;80.00;;;;;;4793764;29;20042;-77
2023/07/24 12:09:05;;;;;;;4.43;3.55;;;22.40;79.50;;;;;;4768502;29;20056;-77
2023/07/24 12:11:33;;;;;;;4.90;3.50;;;22.50;79.10;;;;;;4821316;29;20053;-80
2023/07/24 12:13:59;;;;;;;5.65;3.47;;;22.60;79.20;;;;;;4798413;29;20053;-85
2023/07/24 12:16:28;;;;;;;3.97;2.80;;;22.80;78.90;;;;;;4803364;29;20134;-85
2023/07/24 12:18:56;;;;;;;5.63;3.65;;;23.00;78.70;;;;;;4801749;29;20110;-86
2023/07/24 12:21:25;;;;;;;4.93;3.17;;;23.30;76.60;;;;;;4813177;29;20172;-81
2023/07/24 12:23:52;;;;;;;4.00;2.97;;;23.50;76.20;;;;;;4810685;29;20394;-80
2023/07/24 12:26:19;;;;;;;5.18;3.40;;;24.00;75.70;;;;;;4790044;29;20063;-78
2023/07/24 12:28:46;;;;;;;3.92;2.83;;;24.20;73.40;;;;;;4802818;29;20511;-78
2023/07/24 12:31:13;;;;;;;5.43;3.17;;;23.90;73.40;;;;;;4749811;29;20050;-80
2023/07/24 12:33:40;;;;;;;5.25;2.78;;;23.60;74.00;;;;;;4796579;29;20133;-81
2023/07/24 12:36:07;;;;;;;5.40;2.85;;;23.40;74.70;;;;;;4747841;29;20054;-77
2023/07/24 12:38:34;;;;;;;7.85;3.58;;;22.90;76.10;;;;;;4797545;29;20058;-86
2023/07/24 12:41:01;;;;;;;5.28;3.10;;;22.50;76.80;;;;;;4795174;29;20042;-77
2023/07/24 12:43:28;;;;;;;8.25;4.28;;;22.20;76.90;;;;;;4799206;29;20125;-81
2023/07/24 12:45:56;;;;;;;5.57;4.00;;;22.00;77.10;;;;;;4798876;29;20057;-78
2023/07/24 12:48:23;;;;;;;7.10;4.82;;;21.40;79.20;;;;;;4786663;29;20082;-79
2023/07/24 12:50:50;;;;;;;6.57;3.90;;;21.40;80.20;;;;;;4695586;29;20378;-82
2023/07/24 12:53:17;;;;;;;4.45;3.15;;;21.70;79.80;;;;;;4709398;29;20512;-80